Time;durP1;ratioP1;P1;durP2;ratioP2;P2;SDS_P1;SDS_P2;PMS_P1;PMS_P2;Temp;Humidity;BMP_temperature;BMP_pressure;BME280_temperature;BME280_humidity;BME280_pressure;Samples;Min_cycle;Max_cycle;Signal;HPM_P1;HPM_P2
2021/12/06 00:00:08;;;;;;;4.63;2.35;;;;;;;-5.23;84.21;101950.91;5054261;28;20025;-75
2021/12/06 00:02:34;;;;;;;3.10;2.22;;;;;;;-5.23;84.47;101957.03;5041313;28;20067;-76
2021/12/06 00:04:59;;;;;;;3.92;2.03;;;;;;;-5.22;83.88;101961.38;5057628;28;20016;-75
2021/12/06 00:07:24;;;;;;;4.78;2.20;;;;;;;-5.22;83.83;101961.38;5042521;28;20021;-75
2021/12/06 00:09:50;;;;;;;3.78;2.50;;;;;;;-5.22;84.33;101955.22;5053042;28;20024;-75
2021/12/06 00:12:16;;;;;;;4.07;2.47;;;;;;;-5.22;84.34;101949.91;5054546;28;20490;-75
2021/12/06 00:14:41;;;;;;;4.18;2.17;;;;;;;-5.23;83.87;101956.22;5008128;28;20032;-75
2021/12/06 00:17:11;;;;;;;3.58;2.05;;;;;;;-5.24;83.97;101959.84;5045687;28;20120;-75
2021/12/06 00:19:38;;;;;;;3.75;2.13;;;;;;;-5.22;83.96;101956.06;5054787;28;20033;-75
2021/12/06 00:22:05;;;;;;;4.10;3.00;;;;;;;-5.21;84.47;101957.75;5038047;28;20028;-75
2021/12/06 00:24:31;;;;;;;3.97;2.13;;;;;;;-5.20;84.03;101947.94;5057138;28;20035;-75
2021/12/06 00:26:56;;;;;;;3.85;2.03;;;;;;;-5.23;83.92;101954.38;5065009;28;20053;-75
2021/12/06 00:29:21;;;;;;;4.82;2.70;;;;;;;-5.23;83.83;101949.06;5054912;28;20021;-75
2021/12/06 00:31:47;;;;;;;3.38;2.10;;;;;;;-5.22;84.59;101957.88;5053999;28;20052;-75
2021/12/06 00:34:16;;;;;;;4.07;2.30;;;;;;;-5.21;83.92;101946.25;5056420;28;20024;-75
2021/12/06 00:36:50;;;;;;;3.38;2.30;;;;;;;-5.20;84.43;101951.44;5033525;28;20025;-75
2021/12/06 00:39:16;;;;;;;3.65;2.30;;;;;;;-5.19;84.54;101944.31;5057352;28;20028;-76
2021/12/06 00:41:41;;;;;;;4.65;2.95;;;;;;;-5.17;84.17;101952.97;5062313;28;20094;-75
2021/12/06 00:44:07;;;;;;;2.92;2.00;;;;;;;-5.14;84.33;101942.91;5054451;28;20493;-76
2021/12/06 00:46:34;;;;;;;4.57;2.85;;;;;;;-5.11;84.36;101939.13;5035051;28;20048;-76
2021/12/06 00:48:59;;;;;;;4.38;2.42;;;;;;;-5.09;84.46;101950.44;5050769;28;20027;-76
2021/12/06 00:51:25;;;;;;;4.70;2.13;;;;;;;-5.09;84.47;101939.81;5036865;28;20017;-76
2021/12/06 00:53:50;;;;;;;3.67;2.55;;;;;;;-5.09;84.68;101950.44;5050439;28;20445;-76
2021/12/06 00:56:16;;;;;;;4.78;3.38;;;;;;;-5.09;84.44;101944.31;5052733;28;20032;-77
2021/12/06 00:58:41;;;;;;;3.13;2.08;;;;;;;-5.09;84.26;101942.47;5028193;28;20079;-75
2021/12/06 01:01:07;;;;;;;4.03;2.58;;;;;;;-5.09;84.47;101942.47;5049695;28;20028;-76
2021/12/06 01:03:35;;;;;;;3.00;2.08;;;;;;;-5.09;84.12;101953.09;5032301;28;20036;-76
2021/12/06 01:06:01;;;;;;;5.10;2.30;;;;;;;-5.11;84.62;101947.09;5054706;28;20056;-76
2021/12/06 01:08:26;;;;;;;16.80;3.65;;;;;;;-5.12;83.96;101950.75;5043634;28;20069;-76
2021/12/06 01:10:52;;;;;;;3.58;2.47;;;;;;;-5.14;84.28;101952.69;5060615;28;20021;-76
2021/12/06 01:13:17;;;;;;;5.15;2.40;;;;;;;-5.15;84.00;101940.41;5039261;28;20107;-75
2021/12/06 01:15:43;;;;;;;3.90;2.70;;;;;;;-5.16;84.54;101942.22;5052913;28;20151;-75
2021/12/06 01:18:10;;;;;;;3.72;2.53;;;;;;;-5.16;84.48;101946.66;5037703;28;20052;-76
2021/12/06 01:20:42;;;;;;;5.68;3.10;;;;;;;-5.18;84.54;101946.00;5029553;28;20086;-76
2021/12/06 01:23:11;;;;;;;;;;;;;;;-5.19;84.42;101942.47;5032927;28;20381;-75
2021/12/06 01:25:48;;;;;;;4.20;2.08;;;;;;;-5.22;84.41;101940.09;5024055;28;19920;-76
2021/12/06 01:39:18;;;;;;;3.90;2.80;;;;;;;-5.33;84.66;101936.78;5051518;28;20028;-76
2021/12/06 01:41:52;;;;;;;4.68;2.33;;;;;;;-5.36;84.73;101944.03;5038475;28;20386;-76
2021/12/06 01:44:20;;;;;;;5.78;3.03;;;;;;;-5.39;84.24;101944.31;5054056;28;20059;-76
2021/12/06 01:46:47;;;;;;;4.68;2.40;;;;;;;-5.42;84.14;101938.47;5051208;28;20039;-76
2021/12/06 01:49:13;;;;;;;6.57;3.13;;;;;;;-5.44;84.42;101935.09;5051475;28;20518;-76
2021/12/06 01:51:38;;;;;;;4.28;2.85;;;;;;;-5.46;84.43;101943.19;5046538;28;20034;-76
2021/12/06 01:54:04;;;;;;;5.85;2.78;;;;;;;-5.44;84.08;101940.41;5053482;28;20032;-77
2021/12/06 01:56:29;;;;;;;3.40;2.42;;;;;;;-5.44;84.25;101948.38;5052698;28;20466;-76
2021/12/06 01:58:55;;;;;;;5.03;2.55;;;;;;;-5.44;84.32;101937.75;5045405;28;20037;-77
2021/12/06 02:01:21;;;;;;;5.35;2.80;;;;;;;-5.47;84.11;101944.19;5051749;28;20083;-76
2021/12/06 02:03:46;;;;;;;4.20;2.33;;;;;;;-5.47;84.22;101948.66;5052315;28;20025;-76
2021/12/06 02:06:11;;;;;;;4.50;2.70;;;;;;;-5.46;84.79;101950.34;5053127;28;20021;-76
2021/12/06 02:08:37;;;;;;;3.90;2.35;;;;;;;-5.46;84.51;101940.53;5042331;28;20028;-76
2021/12/06 02:11:03;;;;;;;5.55;2.83;;;;;;;-5.46;84.45;101948.50;5051716;28;20025;-76
2021/12/06 02:13:33;;;;;;;4.75;3.17;;;;;;;-5.47;84.42;101948.66;5054813;28;20033;-76
2021/12/06 02:15:58;;;;;;;4.65;3.20;;;;;;;-5.48;84.26;101947.84;5051508;28;20079;-77
2021/12/06 02:18:48;;;;;;;3.75;2.58;;;;;;;-5.49;84.28;101947.97;5054605;28;20021;-77
2021/12/06 02:21:12;;;;;;;4.38;2.88;;;;;;;-5.51;84.40;101944.59;5058031;28;20024;-74
2021/12/06 02:23:38;;;;;;;4.97;2.80;;;;;;;-5.53;84.17;101942.09;5054274;28;20567;-75
2021/12/06 02:26:03;;;;;;;4.90;3.00;;;;;;;-5.55;84.64;101954.69;5051539;28;20021;-76
2021/12/06 02:28:28;;;;;;;5.75;3.03;;;;;;;-5.54;84.55;101951.03;5048920;28;20106;-75
2021/12/06 02:30:54;;;;;;;7.90;3.08;;;;;;;-5.54;84.55;101956.34;5052672;28;20021;-75
2021/12/06 02:33:19;;;;;;;4.32;2.92;;;;;;;-5.55;84.51;101960.00;5051842;28;20017;-75
2021/12/06 02:35:44;;;;;;;6.50;3.20;;;;;;;-5.55;84.41;101954.69;5034411;28;20039;-75
2021/12/06 02:38:10;;;;;;;5.95;2.72;;;;;;;-5.53;84.37;101951.88;5047587;28;20087;-75
2021/12/06 02:40:37;;;;;;;6.40;2.83;;;;;;;-5.52;84.28;101950.91;5034623;28;20032;-75
2021/12/06 02:43:03;;;;;;;4.88;3.00;;;;;;;-5.51;84.82;101956.09;5047244;28;20021;-75
2021/12/06 02:45:29;;;;;;;5.10;3.15;;;;;;;-5.50;84.38;101956.91;5052299;28;20039;-75
2021/12/06 02:47:55;;;;;;;4.75;2.92;;;;;;;-5.52;84.24;101949.06;5022948;28;20025;-75
2021/12/06 02:50:23;;;;;;;4.78;2.58;;;;;;;-5.52;84.42;101942.94;5051100;28;20025;-75
2021/12/06 02:52:48;;;;;;;5.68;3.20;;;;;;;-5.55;84.39;101941.38;5029799;28;20025;-75
2021/12/06 02:57:57;;;;;;;6.15;2.90;;;;;;;-5.56;84.36;101944.19;5052265;28;20025;-75
2021/12/06 03:00:23;;;;;;;7.20;3.08;;;;;;;-5.56;84.44;101945.03;5072279;28;20056;-77
2021/12/06 03:02:48;;;;;;;5.82;3.38;;;;;;;-5.59;84.89;101947.97;5053014;28;20056;-76
2021/12/06 03:05:14;;;;;;;7.15;3.42;;;;;;;-5.59;85.03;101951.47;5050762;28;20027;-75
2021/12/06 03:07:39;;;;;;;8.25;4.57;;;;;;;-5.60;84.77;101943.63;5047542;28;20074;-76
2021/12/06 03:10:06;;;;;;;4.88;2.78;;;;;;;-5.60;84.50;101946.28;5052122;28;20403;-75
2021/12/06 03:12:31;;;;;;;7.25;2.67;;;;;;;-5.62;84.59;101937.59;5048938;28;20107;-75
2021/12/06 03:14:57;;;;;;;4.00;2.90;;;;;;;-5.62;84.59;101934.94;5051710;28;20024;-76
2021/12/06 03:17:24;;;;;;;6.55;2.90;;;;;;;-5.62;84.59;101934.94;5050226;28;20518;-75
2021/12/06 03:19:50;;;;;;;5.53;2.83;;;;;;;-5.61;84.59;101939.28;5047834;28;20025;-76
2021/12/06 03:22:15;;;;;;;4.78;3.15;;;;;;;-5.60;84.70;101931.16;5065335;28;20037;-76
2021/12/06 03:24:41;;;;;;;4.03;2.63;;;;;;;-5.61;84.90;101928.66;5045499;28;20104;-75
2021/12/06 03:27:07;;;;;;;5.68;2.67;;;;;;;-5.62;85.00;101933.16;5033338;28;20021;-75
2021/12/06 03:29:32;;;;;;;5.50;3.38;;;;;;;-5.62;85.16;101934.94;5034108;28;20116;-75
2021/12/06 03:31:57;;;;;;;4.22;2.80;;;;;;;-5.63;85.19;101934.09;5056623;28;20415;-75
2021/12/06 03:34:26;;;;;;;5.60;3.35;;;;;;;-5.62;85.21;101932.28;5054886;28;20035;-75
2021/12/06 03:36:53;;;;;;;4.28;2.45;;;;;;;-5.64;85.10;101931.59;5075853;28;20028;-76
2021/12/06 03:39:24;;;;;;;4.35;2.67;;;;;;;-5.65;84.64;101920.16;5044109;28;20051;-75
2021/12/06 03:41:52;;;;;;;4.60;2.80;;;;;;;-5.64;84.79;101923.63;5041505;28;20031;-75
2021/12/06 03:44:20;;;;;;;5.68;3.03;;;;;;;-5.67;85.00;101918.59;5054751;28;20037;-76
2021/12/06 03:46:46;;;;;;;6.45;3.00;;;;;;;-5.67;85.36;101911.47;5064532;28;20025;-75
2021/12/06 03:49:12;;;;;;;6.18;3.13;;;;;;;-5.66;85.18;101914.97;5057465;28;20040;-76
2021/12/06 03:51:38;;;;;;;5.82;2.72;;;;;;;-5.65;84.78;101924.59;5047677;28;20108;-75
2021/12/06 03:54:04;;;;;;;5.70;2.35;;;;;;;-5.66;85.08;101923.75;5055009;28;20120;-75
2021/12/06 03:56:29;;;;;;;5.85;2.72;;;;;;;-5.64;85.27;101920.97;5054969;28;20103;-76
2021/12/06 03:58:54;;;;;;;3.78;2.25;;;;;;;-5.63;85.07;101925.31;5054726;28;20029;-75
2021/12/06 04:01:20;;;;;;;3.83;2.45;;;;;;;-5.63;85.25;101915.50;5055237;28;20070;-77
2021/12/06 04:03:45;;;;;;;4.70;3.00;;;;;;;-5.63;85.05;101904.06;5043335;28;20116;-76
2021/12/06 04:06:11;;;;;;;5.40;3.20;;;;;;;-5.62;84.92;101900.41;5052303;28;20454;-75
2021/12/06 04:08:36;;;;;;;4.78;2.92;;;;;;;-5.63;84.91;101893.44;5050917;28;20021;-75
2021/12/06 04:11:02;;;;;;;5.85;2.88;;;;;;;-5.63;85.30;101896.91;5055364;28;20090;-75
2021/12/06 04:13:27;;;;;;;4.40;2.90;;;;;;;-5.63;84.74;101904.06;5053127;28;20382;-76
2021/12/06 04:15:53;;;;;;;4.28;2.38;;;;;;;-5.63;85.29;101899.56;5054916;28;20477;-76
2021/12/06 04:18:18;;;;;;;3.80;2.40;;;;;;;-5.61;85.37;101907.41;5053972;28;20036;-76
2021/12/06 04:20:43;;;;;;;4.75;2.80;;;;;;;-5.59;84.80;101916.09;5053500;28;20017;-75
2021/12/06 04:23:10;;;;;;;5.00;2.88;;;;;;;-5.60;85.06;101901.13;5054094;28;20394;-76
2021/12/06 04:25:35;;;;;;;4.35;2.72;;;;;;;-5.59;85.27;101901.00;5055849;28;20016;-76
2021/12/06 04:28:05;;;;;;;7.28;2.97;;;;;;;-5.57;85.05;101903.47;5034617;28;20550;-76
2021/12/06 04:30:31;;;;;;;7.38;2.70;;;;;;;-5.57;85.14;101906.13;5054855;28;20028;-75
2021/12/06 04:32:56;;;;;;;3.03;2.38;;;;;;;-5.58;85.12;101904.47;5053928;28;20047;-75
2021/12/06 04:35:22;;;;;;;4.97;2.55;;;;;;;-5.58;85.19;101913.28;5052027;28;20028;-75
2021/12/06 04:37:47;;;;;;;4.88;3.05;;;;;;;-5.57;85.68;101908.78;5033152;28;20036;-75
2021/12/06 04:40:13;;;;;;;4.28;2.85;;;;;;;-5.59;85.67;101908.97;5050091;28;20029;-76
2021/12/06 04:42:39;;;;;;;4.85;3.03;;;;;;;-5.58;85.43;101913.28;5045665;28;20550;-75
2021/12/06 04:45:05;;;;;;;5.00;2.63;;;;;;;-5.56;85.03;101907.84;5047873;28;20075;-75
2021/12/06 04:47:30;;;;;;;5.38;2.83;;;;;;;-5.56;85.60;101905.19;5056539;28;20056;-77
2021/12/06 04:49:55;;;;;;;3.83;2.47;;;;;;;-5.55;85.10;101904.19;5045824;28;20032;-75
2021/12/06 04:52:21;;;;;;;7.03;2.92;;;;;;;-5.54;85.38;101913.81;5059046;28;20029;-76
2021/12/06 04:54:49;;;;;;;4.97;2.63;;;;;;;-5.54;85.56;101913.00;5043664;28;20016;-75
2021/12/06 04:57:29;;;;;;;4.15;2.75;;;;;;;-5.55;85.52;101906.00;5074385;28;20111;-76
2021/12/06 05:00:00;;;;;;;5.90;3.03;;;;;;;-5.55;85.57;101909.50;5043623;28;20550;-76
2021/12/06 05:02:31;;;;;;;5.20;2.65;;;;;;;-5.54;85.12;101910.34;5060125;28;20469;-76
2021/12/06 05:04:57;;;;;;;4.43;2.78;;;;;;;-5.58;85.50;101907.13;5053745;28;20447;-76
2021/12/06 05:07:29;;;;;;;5.05;2.55;;;;;;;-5.60;85.15;101903.78;5060987;28;20020;-76
2021/12/06 05:09:54;;;;;;;;;;;;;;;-5.59;85.27;101897.50;5042771;28;20041;-75
2021/12/06 05:12:21;;;;;;;4.75;2.72;;;;;;;-5.59;84.94;101902.81;5036072;28;20376;-75
2021/12/06 05:14:47;;;;;;;4.80;2.88;;;;;;;-5.62;85.08;101900.41;5029924;28;20033;-75
2021/12/06 05:17:12;;;;;;;6.53;2.92;;;;;;;-5.63;84.89;101902.22;5042609;28;20052;-75
2021/12/06 05:19:38;;;;;;;6.03;3.08;;;;;;;-5.64;85.61;101902.38;5035606;28;20104;-75
2021/12/06 05:22:04;;;;;;;6.03;3.55;;;;;;;-5.63;85.18;101893.44;5052481;28;20016;-75
2021/12/06 05:24:30;;;;;;;4.78;3.00;;;;;;;-5.65;85.46;101890.06;5041845;28;20086;-76
2021/12/06 05:26:56;;;;;;;3.80;2.30;;;;;;;-5.66;85.28;101901.69;5053684;28;20029;-76
2021/12/06 05:29:25;;;;;;;5.30;2.95;;;;;;;-5.68;85.32;101903.63;5053111;28;20510;-76
2021/12/06 05:31:55;;;;;;;3.67;2.35;;;;;;;-5.69;85.36;101899.31;5055572;28;20492;-75
2021/12/06 05:34:28;;;;;;;4.68;2.45;;;;;;;-5.71;85.08;101901.25;5053143;28;20037;-75
2021/12/06 05:36:54;;;;;;;3.67;2.67;;;;;;;-5.75;85.06;101902.53;5052447;28;20030;-75
2021/12/06 05:39:19;;;;;;;4.65;2.45;;;;;;;-5.74;84.86;101891.75;5052785;28;20032;-75
2021/12/06 05:41:44;;;;;;;5.45;2.65;;;;;;;-5.74;85.18;101890.91;5063217;28;20017;-75
2021/12/06 05:44:10;;;;;;;6.22;3.05;;;;;;;-5.74;85.57;101898.88;5052305;28;20032;-75
2021/12/06 05:46:35;;;;;;;4.88;2.85;;;;;;;-5.75;85.19;101899.88;5053435;28;20458;-76
2021/12/06 05:49:01;;;;;;;4.20;2.42;;;;;;;-5.76;85.49;101895.53;5052657;28;20032;-76
2021/12/06 05:51:26;;;;;;;5.18;2.65;;;;;;;-5.77;84.87;101901.81;5052486;28;20032;-75
2021/12/06 05:53:52;;;;;;;4.50;2.85;;;;;;;-5.78;84.81;101894.81;5038192;28;20017;-76
2021/12/06 05:56:17;;;;;;;3.55;2.38;;;;;;;-5.78;85.41;101905.44;5054796;28;20058;-75
2021/12/06 05:58:42;;;;;;;3.95;2.65;;;;;;;-5.77;85.19;101901.81;5060710;28;20029;-75
2021/12/06 06:01:09;;;;;;;5.25;2.50;;;;;;;-5.78;85.37;101889.50;5052471;28;20021;-75
2021/12/06 06:03:34;;;;;;;4.60;3.00;;;;;;;-5.78;85.08;101898.34;5048099;28;20053;-76
2021/12/06 06:06:00;;;;;;;5.60;2.95;;;;;;;-5.79;85.05;101893.97;5035273;28;20029;-75
2021/12/06 06:08:25;;;;;;;4.32;2.85;;;;;;;-5.80;85.07;101890.50;5049265;28;20029;-75
2021/12/06 06:10:51;;;;;;;6.07;2.58;;;;;;;-5.78;85.42;101889.50;5052146;28;20033;-75
2021/12/06 06:13:16;;;;;;;4.07;2.90;;;;;;;-5.78;84.87;101903.66;5047501;28;20021;-75
2021/12/06 06:15:42;;;;;;;6.18;3.13;;;;;;;-5.77;85.36;101901.81;5037907;28;20085;-75
2021/12/06 06:18:07;;;;;;;5.32;3.03;;;;;;;-5.78;85.00;101884.19;5068195;28;20045;-75
2021/12/06 06:20:40;;;;;;;3.88;2.40;;;;;;;-5.76;85.23;101899.00;5052848;28;20037;-75
2021/12/06 06:23:06;;;;;;;5.38;2.90;;;;;;;-5.73;85.43;101900.56;5059272;28;20105;-77
2021/12/06 06:25:31;;;;;;;4.55;2.47;;;;;;;-5.72;85.42;101904.91;5052488;28;20033;-76
2021/12/06 06:27:57;;;;;;;4.95;3.35;;;;;;;-5.71;84.92;101893.28;5054737;28;20020;-75
2021/12/06 06:30:22;;;;;;;7.70;2.97;;;;;;;-5.70;85.54;101898.47;5046842;28;20381;-75
2021/12/06 06:32:48;;;;;;;5.70;2.83;;;;;;;-5.67;85.02;101897.34;5054738;28;20494;-76
2021/12/06 06:35:14;;;;;;;4.50;3.10;;;;;;;-5.66;84.96;101912.31;5052778;28;20020;-76
2021/12/06 06:37:39;;;;;;;5.50;2.90;;;;;;;-5.64;85.39;101913.84;5031787;28;20159;-77
2021/12/06 06:40:06;;;;;;;5.22;2.88;;;;;;;-5.61;85.02;101907.41;5045801;28;20052;-76
2021/12/06 06:42:31;;;;;;;4.72;3.13;;;;;;;-5.60;85.04;101914.41;5044659;28;20380;-76
2021/12/06 06:44:56;;;;;;;8.13;3.47;;;;;;;-5.58;85.30;101910.63;5055820;28;20053;-75
2021/12/06 06:47:22;;;;;;;5.25;3.20;;;;;;;-5.58;84.94;101905.31;5054244;28;20477;-75
2021/12/06 06:49:47;;;;;;;6.70;3.00;;;;;;;-5.56;85.23;101912.31;5057127;28;20040;-75
2021/12/06 06:52:13;;;;;;;7.55;3.28;;;;;;;-5.57;85.01;101906.13;5045290;28;20028;-76
2021/12/06 06:54:39;;;;;;;5.18;3.30;;;;;;;-5.56;84.96;101907.00;5058355;28;20025;-76
2021/12/06 06:57:04;;;;;;;5.28;3.00;;;;;;;-5.55;84.84;101906.84;5052245;28;20076;-76
2021/12/06 06:59:30;;;;;;;5.07;2.60;;;;;;;-5.54;85.27;101913.81;5042512;28;20025;-77
2021/12/06 07:01:55;;;;;;;5.68;2.80;;;;;;;-5.52;85.07;101914.53;5050882;28;20075;-76
2021/12/06 07:04:21;;;;;;;5.57;2.78;;;;;;;-5.49;85.15;101914.25;5042519;28;20071;-76
2021/12/06 07:06:46;;;;;;;7.38;3.45;;;;;;;-5.47;85.14;101906.97;5050839;28;20061;-76
2021/12/06 07:09:12;;;;;;;5.03;2.88;;;;;;;-5.42;85.04;101909.22;5022679;28;20021;-73
2021/12/06 07:11:37;;;;;;;6.45;3.25;;;;;;;-5.40;85.22;101918.75;5050032;28;20033;-76
2021/12/06 07:14:02;;;;;;;6.60;3.25;;;;;;;-5.38;84.91;101915.91;5046702;28;20074;-77
2021/12/06 07:16:29;;;;;;;5.65;3.17;;;;;;;-5.37;85.03;101918.44;5051917;28;20059;-76
2021/12/06 07:18:55;;;;;;;6.10;2.92;;;;;;;-5.34;84.84;101919.16;5051506;28;20024;-76
2021/12/06 07:21:21;;;;;;;6.22;3.40;;;;;;;-5.33;85.27;101920.81;5042653;28;20112;-74
2021/12/06 07:23:46;;;;;;;9.55;3.30;;;;;;;-5.31;85.31;101918.88;5051029;28;20134;-76
2021/12/06 07:26:14;;;;;;;8.00;3.67;;;;;;;-5.30;84.62;101917.88;5039696;28;20021;-75
2021/12/06 07:28:40;;;;;;;6.72;3.60;;;;;;;-5.28;84.76;101918.59;5049156;28;20029;-75
2021/12/06 07:31:06;;;;;;;6.80;3.75;;;;;;;-5.28;85.22;101915.94;5031182;28;20051;-74
2021/12/06 07:33:35;;;;;;;5.30;2.75;;;;;;;-5.30;84.77;101909.91;5031680;28;20094;-75
2021/12/06 07:36:00;;;;;;;6.47;3.45;;;;;;;-5.32;85.34;101906.53;5047998;28;20024;-76
2021/12/06 07:38:26;;;;;;;6.82;3.00;;;;;;;-5.34;85.13;101916.50;5052394;28;20051;-76
2021/12/06 07:40:52;;;;;;;6.35;2.92;;;;;;;-5.37;85.16;101915.78;5042869;28;20428;-75
2021/12/06 07:43:18;;;;;;;5.43;3.58;;;;;;;-5.36;85.10;101916.63;5053803;28;20028;-75
2021/12/06 07:45:43;;;;;;;8.18;3.63;;;;;;;-5.37;84.88;101910.47;5022923;28;20087;-75
2021/12/06 07:48:09;;;;;;;6.25;2.90;;;;;;;-5.36;84.91;101914.81;5053828;28;20020;-74
2021/12/06 07:50:34;;;;;;;9.00;3.42;;;;;;;-5.36;85.13;101912.16;5048742;28;20024;-74
2021/12/06 07:52:59;;;;;;;8.18;3.38;;;;;;;-5.37;84.61;101907.81;5056712;28;20029;-76
2021/12/06 07:55:27;;;;;;;7.63;3.80;;;;;;;-5.37;85.00;101913.13;5045402;28;20025;-76
2021/12/06 07:57:56;;;;;;;6.85;2.80;;;;;;;-5.37;84.94;101902.50;5052820;28;20100;-75
2021/12/06 08:00:23;;;;;;;7.43;3.35;;;;;;;-5.36;84.62;101904.16;5048620;28;20104;-76
2021/12/06 08:02:48;;;;;;;4.70;3.10;;;;;;;-5.36;85.03;101896.19;5053949;28;20425;-76
2021/12/06 08:08:11;;;;;;;6.03;3.40;;;;;;;-5.36;84.84;101896.19;5052722;28;20082;-75
2021/12/06 08:10:39;;;;;;;8.32;3.65;;;;;;;-5.36;84.94;101885.56;5026662;28;20080;-75
2021/12/06 08:13:05;;;;;;;5.68;3.10;;;;;;;-5.36;84.36;101896.19;5035049;28;20028;-75
2021/12/06 08:15:30;;;;;;;5.88;3.30;;;;;;;-5.36;84.90;101890.06;5036702;28;20466;-75
2021/12/06 08:17:56;;;;;;;6.10;3.28;;;;;;;-5.36;85.00;101896.19;5054432;28;20048;-75
2021/12/06 08:20:21;;;;;;;5.18;2.85;;;;;;;-5.36;84.92;101893.53;5054304;28;20024;-75
2021/12/06 08:22:47;;;;;;;4.93;3.20;;;;;;;-5.33;84.57;101897.72;5057204;28;20043;-75
2021/12/06 08:25:12;;;;;;;6.53;3.20;;;;;;;-5.32;84.59;101890.59;5041077;28;20044;-76
2021/12/06 08:27:38;;;;;;;6.32;3.00;;;;;;;-5.30;84.98;101891.28;5067563;28;20025;-75
2021/12/06 08:30:04;;;;;;;5.22;2.75;;;;;;;-5.26;84.97;101892.72;5044664;28;20029;-76
2021/12/06 08:32:29;;;;;;;6.43;3.40;;;;;;;-5.25;84.35;101879.25;5039503;28;20111;-76
2021/12/06 08:34:55;;;;;;;6.63;3.33;;;;;;;-5.25;84.83;101870.44;5063195;28;20462;-75
2021/12/06 08:37:20;;;;;;;7.82;3.38;;;;;;;-5.25;84.92;101865.13;5054828;28;20044;-76
2021/12/06 08:39:46;;;;;;;5.53;2.75;;;;;;;-5.27;84.37;101853.78;5046545;28;20048;-76
2021/12/06 08:42:11;;;;;;;5.82;3.10;;;;;;;-5.29;84.35;101858.41;5054602;28;20025;-76
2021/12/06 08:44:36;;;;;;;5.95;3.03;;;;;;;-5.30;84.32;101846.13;5047030;28;20033;-76
2021/12/06 08:47:02;;;;;;;7.78;3.08;;;;;;;-5.29;84.49;101847.78;5043341;28;20021;-75
2021/12/06 08:49:28;;;;;;;5.75;3.25;;;;;;;-5.30;84.83;101848.78;5054532;28;20477;-76
2021/12/06 08:51:56;;;;;;;5.28;3.22;;;;;;;-5.31;84.38;101837.31;5063045;28;20470;-76
2021/12/06 08:54:24;;;;;;;4.32;2.88;;;;;;;-5.31;84.79;101839.97;5050298;28;20017;-76
2021/12/06 08:56:51;;;;;;;7.30;3.30;;;;;;;-5.29;84.54;101839.81;5054383;28;20035;-76
2021/12/06 08:59:16;;;;;;;5.53;2.92;;;;;;;-5.27;84.81;101837.84;5051021;28;20025;-76
2021/12/06 09:01:42;;;;;;;5.65;2.88;;;;;;;-5.30;84.85;101846.94;5053121;28;20458;-76
2021/12/06 09:04:11;;;;;;;7.78;3.00;;;;;;;-5.28;84.76;101849.47;5051863;28;20135;-76
2021/12/06 09:06:40;;;;;;;3.85;2.28;;;;;;;-5.29;84.59;101855.75;5038385;28;20485;-75
2021/12/06 09:09:08;;;;;;;5.00;3.00;;;;;;;-5.27;84.33;101867.09;5042838;28;20058;-76
2021/12/06 09:11:36;;;;;;;4.78;2.88;;;;;;;-5.27;84.47;101869.75;5055356;28;20021;-76
2021/12/06 09:14:02;;;;;;;7.13;2.88;;;;;;;-5.27;84.52;101867.91;5053873;28;20032;-76
2021/12/06 09:16:27;;;;;;;6.80;2.70;;;;;;;-5.25;84.68;101873.09;5039618;28;20131;-76
2021/12/06 09:18:53;;;;;;;6.45;2.50;;;;;;;-5.23;84.18;101881.78;5055118;28;20036;-75
2021/12/06 09:21:20;;;;;;;4.53;3.00;;;;;;;-5.18;84.24;101876.88;5053337;28;20021;-75
2021/12/06 09:23:46;;;;;;;7.50;3.45;;;;;;;-5.13;84.28;101879.91;5052520;28;20029;-76
2021/12/06 09:26:11;;;;;;;4.47;2.90;;;;;;;-5.07;84.22;101871.38;5042164;28;20133;-76
2021/12/06 09:28:37;;;;;;;7.38;4.13;;;;;;;-5.03;84.44;101875.41;5052203;28;20364;-76
2021/12/06 09:31:04;;;;;;;5.65;3.20;;;;;;;-4.99;84.30;101871.50;5053175;28;20459;-75
2021/12/06 09:33:30;;;;;;;5.93;3.20;;;;;;;-4.91;84.07;101878.75;5054025;28;20024;-75
2021/12/06 09:35:58;;;;;;;4.80;2.80;;;;;;;-4.83;84.23;101883.31;5004990;28;20450;-76
2021/12/06 09:38:27;;;;;;;5.85;3.15;;;;;;;-4.77;84.37;101885.44;5055349;28;20513;-76
2021/12/06 09:40:53;;;;;;;6.13;3.05;;;;;;;-4.68;83.98;101879.22;5052384;28;20027;-77
2021/12/06 09:43:18;;;;;;;7.75;3.53;;;;;;;-4.61;83.91;101872.34;5053839;28;20381;-76
2021/12/06 09:45:44;;;;;;;6.32;3.35;;;;;;;-4.54;84.37;101870.75;5037147;28;20064;-76
2021/12/06 09:48:10;;;;;;;4.20;3.22;;;;;;;-4.50;83.98;101872.13;5052409;28;20028;-76
2021/12/06 09:50:41;;;;;;;5.25;2.80;;;;;;;-4.46;83.99;101862.84;5058126;28;20048;-76
2021/12/06 09:53:08;;;;;;;6.78;2.92;;;;;;;-4.41;83.81;101858.91;5042199;28;20032;-75
2021/12/06 09:55:33;;;;;;;6.63;2.92;;;;;;;-4.36;84.44;101857.47;5036712;28;20079;-75
2021/12/06 09:57:59;;;;;;;5.82;3.00;;;;;;;-4.30;83.80;101851.56;5053452;28;20051;-77
2021/12/06 10:00:26;;;;;;;7.75;3.28;;;;;;;-4.24;84.41;101858.09;5052703;28;20173;-76
2021/12/06 10:02:52;;;;;;;5.88;2.92;;;;;;;-4.20;84.30;101858.63;5053323;28;20051;-76
2021/12/06 10:05:18;;;;;;;4.90;2.92;;;;;;;-4.15;83.76;101851.88;5028378;28;20116;-75
2021/12/06 10:07:43;;;;;;;6.22;2.90;;;;;;;-4.08;84.46;101858.28;5052470;28;20562;-75
2021/12/06 10:10:10;;;;;;;4.75;2.97;;;;;;;-3.98;83.89;101855.56;5046321;28;20025;-75
2021/12/06 10:12:35;;;;;;;8.73;3.33;;;;;;;-3.90;84.02;101852.09;5053177;28;20420;-75
2021/12/06 10:15:03;;;;;;;3.75;2.72;;;;;;;-3.86;83.89;101850.81;5050133;28;20020;-77
2021/12/06 10:17:29;;;;;;;5.45;3.00;;;;;;;-3.79;83.78;101846.56;5052898;28;20143;-75
2021/12/06 10:19:54;;;;;;;6.07;2.97;;;;;;;-3.70;83.64;101845.63;5036595;28;20444;-76
2021/12/06 10:22:21;;;;;;;3.55;2.42;;;;;;;-3.62;83.99;101834.22;5039042;28;20021;-75
2021/12/06 10:24:56;;;;;;;4.82;2.75;;;;;;;-3.57;83.49;101827.41;5051765;28;20151;-76
2021/12/06 10:27:21;;;;;;;3.58;2.40;;;;;;;-3.52;83.75;101823.44;5054245;28;20465;-76
2021/12/06 10:30:03;;;;;;;3.88;2.20;;;;;;;-3.45;83.81;101819.16;5060312;28;20032;-76
2021/12/06 10:32:33;;;;;;;3.15;1.65;;;;;;;-3.40;83.67;101815.03;5040678;28;20099;-76
2021/12/06 10:35:01;;;;;;;4.15;2.30;;;;;;;-3.35;83.91;101812.75;5059726;28;20061;-76
2021/12/06 10:37:36;;;;;;;4.03;2.60;;;;;;;-3.29;83.50;101813.94;5013197;28;20083;-74
2021/12/06 10:40:05;;;;;;;3.97;2.30;;;;;;;-3.25;83.43;101815.28;5050627;28;20028;-76
2021/12/06 10:42:37;;;;;;;4.05;2.42;;;;;;;-3.22;83.55;101812.31;5052315;28;20020;-75
2021/12/06 10:45:17;;;;;;;3.60;2.13;;;;;;;-3.15;83.59;101813.34;5048188;28;20029;-75
2021/12/06 10:47:44;;;;;;;6.22;2.60;;;;;;;-3.04;84.09;101811.41;5052963;28;20016;-75
2021/12/06 10:50:17;;;;;;;4.50;2.28;;;;;;;-2.94;83.48;101801.47;5055291;28;20017;-75
2021/12/06 10:53:09;;;;;;;3.97;2.35;;;;;;;-2.83;83.75;101798.50;5050193;28;20115;-77
2021/12/06 10:55:35;;;;;;;3.55;2.05;;;;;;;-2.76;83.21;101799.50;5039350;28;20116;-75
2021/12/06 10:58:05;;;;;;;3.47;2.10;;;;;;;-2.69;83.27;101789.88;5036506;28;20027;-75
2021/12/06 11:00:36;;;;;;;4.30;2.10;;;;;;;-2.67;83.34;101789.72;5044747;28;20111;-75
2021/12/06 11:03:02;;;;;;;5.45;2.28;;;;;;;-2.66;83.38;101787.88;5053718;28;20114;-76
2021/12/06 11:05:29;;;;;;;4.07;2.35;;;;;;;-2.71;83.08;101789.19;5044769;28;20079;-76
2021/12/06 11:08:07;;;;;;;4.25;2.20;;;;;;;-2.71;83.37;101786.53;5039786;28;20039;-76
2021/12/06 11:10:37;;;;;;;4.03;2.05;;;;;;;-2.71;83.07;101783.03;5043514;28;20033;-75
2021/12/06 11:13:23;;;;;;;3.70;2.35;;;;;;;-2.74;82.89;101786.03;5049586;28;20025;-75
2021/12/06 11:16:22;;;;;;;4.20;2.20;;;;;;;-2.71;83.38;101786.53;5042479;28;20108;-75
2021/12/06 11:18:52;;;;;;;3.08;1.95;;;;;;;-2.63;83.27;101787.56;5028786;28;20487;-76
2021/12/06 11:21:21;;;;;;;2.92;2.40;;;;;;;-2.58;83.02;101770.06;5055747;28;20071;-77
2021/12/06 11:23:59;;;;;;;2.75;2.10;;;;;;;-2.51;82.90;101764.88;5050673;28;20029;-77
2021/12/06 11:26:25;;;;;;;4.95;2.25;;;;;;;-2.42;82.71;101763.91;5043438;28;20103;-76
2021/12/06 11:28:50;;;;;;;3.45;2.25;;;;;;;-2.34;82.78;101761.25;5033799;28;20484;-77
2021/12/06 11:31:16;;;;;;;2.88;1.85;;;;;;;-2.22;82.57;101763.59;5050900;28;20033;-78
2021/12/06 11:33:41;;;;;;;3.30;2.03;;;;;;;-2.16;82.68;101757.59;5051737;28;20108;-77
2021/12/06 11:36:21;;;;;;;3.63;2.25;;;;;;;-2.10;82.34;101762.28;5051147;28;20021;-76
2021/12/06 11:38:50;;;;;;;2.55;1.90;;;;;;;-2.07;82.39;101765.47;5036684;28;20029;-76
2021/12/06 11:41:15;;;;;;;7.03;2.00;;;;;;;-2.08;82.37;101760.28;5057618;28;20074;-76